Etusivu
METAR-TAF:

METAR-TAF

Lentoasemat :

Pamplona, Espanja

Leveyspiiri: 42-46N, Pituuspiiri: 001-38W, korkeus merenpinnasta: 459 m

Tämänhetkinen sää

Tämä raportti tehtiin 35 minuuttia sitten, kello 08.00 UTC
Tuuli 9 kn luoteesta, vaihdellen lännen ja pohjoisen välillä
Lämpötila 11°C
Kosteus 50%
Ilmanpaine 1019 hPa
Näkyvyys 10 km tai enemmän
ei pilviä alle 1500 m:ssä eikä cumulonimbus-pilviä

METAR: LEPP 210800Z 32009KT 280V350 CAVOK 11/01 Q1019

Aika: 10:35 (08:35 UTC)

Sääennuste

Tämä raportti tehtiin 35 minuuttia sitten, kello 08.00 UTC
Ennuste voimassa 21. päivästä klo 09 UTC - 22. päivään klo 09 UTC
Tuuli 9 kn pohjoisesta
Näkyvyys 10 km tai enemmän
Muutamia pilviä 3000 ft:n korkeudessa
Ajoittain
21. päivästä klo 09 UTC - 21. päivään klo 20 UTC
Tuuli 18 kn pohjoisesta puuskistuen 28 kn:hen

TAF: LEPP 210800Z 2109/2209 35009KT 9999 FEW030 TX16/2115Z TN01/2206Z TEMPO 2109/2120 01018G28KT

Säähavainnot ja -ennusteet yli 4000 lentoasemalta (METAR- ja TAF-raportit).

Käytössä olevat sääasemat on merkitty karttaan keltaisilla ja punaisilla pisteillä.

Aseta hiiri pisteen päälle nähdäksesi sääaseman nimen.

Klikkaa sitten nähdäksesi säähavainnot ja -ennusteet.

Kartan vaihtaminen: klikkaa mustalla rastilla varustettuja vihreitä pisteitä, niin voit zoomata sisään; viivalla varustettua vihreää pistettä, niin voit zoomata ulos tai vihreitä nuolia, niin pääset viereisille kartoille.


METAR-TAF: